Time;durP1;ratioP1;P1;durP2;ratioP2;P2;SDS_P1;SDS_P2;PMS_P1;PMS_P2;Temp;Humidity;BMP_temperature;BMP_pressure;BME280_temperature;BME280_humidity;BME280_pressure;Samples;Min_cycle;Max_cycle;Signal;HPM_P1;HPM_P2
2023/11/15 00:00:51;;;;;;;4.05;1.80;;;11.40;99.90;;;;;;5070484;28;20116;-43
2023/11/15 00:03:16;;;;;;;7.75;2.63;;;11.40;99.90;;;;;;5080222;28;20036;-44
2023/11/15 00:05:45;;;;;;;5.63;2.33;;;11.50;99.90;;;;;;5068298;28;20116;-44
2023/11/15 00:08:11;;;;;;;4.80;1.77;;;11.40;99.90;;;;;;5060512;28;20027;-44
2023/11/15 00:10:41;;;;;;;5.70;2.05;;;11.50;99.90;;;;;;5073941;28;20024;-43
2023/11/15 00:13:08;;;;;;;4.45;1.67;;;11.50;99.90;;;;;;5060651;28;20032;-45
2023/11/15 00:15:34;;;;;;;4.15;1.70;;;11.50;99.90;;;;;;5073329;28;20377;-44
2023/11/15 00:18:04;;;;;;;5.60;1.65;;;11.50;99.90;;;;;;5060760;28;20528;-44
2023/11/15 00:20:33;;;;;;;4.95;1.52;;;11.50;99.90;;;;;;5072493;28;20024;-44
2023/11/15 00:23:01;;;;;;;2.47;1.52;;;11.50;99.90;;;;;;5061053;28;20023;-44
2023/11/15 00:25:27;;;;;;;5.28;1.88;;;11.50;99.90;;;;;;5069750;28;20035;-44
2023/11/15 00:27:54;;;;;;;5.22;1.77;;;11.50;99.90;;;;;;5063705;28;20024;-44
2023/11/15 00:30:20;;;;;;;4.15;1.67;;;11.50;99.90;;;;;;5068534;28;20355;-45
2023/11/15 00:32:46;;;;;;;8.30;1.70;;;11.50;99.90;;;;;;5064830;28;20023;-44
2023/11/15 00:35:12;;;;;;;6.25;1.50;;;11.50;99.90;;;;;;5064935;28;20570;-44
2023/11/15 00:37:38;;;;;;;3.35;1.45;;;11.50;99.90;;;;;;5067897;28;20029;-44
2023/11/15 00:40:04;;;;;;;4.82;1.40;;;11.60;99.90;;;;;;5062548;28;20140;-45
2023/11/15 00:42:30;;;;;;;5.53;1.88;;;11.50;99.90;;;;;;5070909;28;20020;-44
2023/11/15 00:44:56;;;;;;;3.55;1.58;;;11.50;99.90;;;;;;5062020;28;20028;-44
2023/11/15 00:47:22;;;;;;;3.95;1.70;;;11.50;99.90;;;;;;5071372;28;20499;-44
2023/11/15 00:49:47;;;;;;;3.80;1.23;;;11.50;99.90;;;;;;5077014;28;20039;-44
2023/11/15 00:52:13;;;;;;;2.38;1.23;;;11.50;99.90;;;;;;5080171;28;20107;-44
2023/11/15 00:54:40;;;;;;;3.38;1.50;;;11.50;99.90;;;;;;5080775;28;20527;-44
2023/11/15 00:57:06;;;;;;;4.60;1.80;;;11.50;99.90;;;;;;5080529;28;20051;-44
2023/11/15 00:59:37;;;;;;;4.00;1.58;;;11.50;99.90;;;;;;5080105;28;20178;-44
2023/11/15 01:02:05;;;;;;;3.60;1.67;;;11.50;99.90;;;;;;5079980;28;20043;-45
2023/11/15 01:04:32;;;;;;;9.93;2.20;;;11.60;99.90;;;;;;5080572;28;20489;-43
2023/11/15 01:06:58;;;;;;;4.05;1.67;;;11.50;99.90;;;;;;5080267;28;20668;-44
2023/11/15 01:09:27;;;;;;;11.80;4.40;;;11.50;99.90;;;;;;5080364;28;20391;-43
2023/11/15 01:11:53;;;;;;;8.93;2.88;;;11.50;99.90;;;;;;5080587;28;20101;-44
2023/11/15 01:14:20;;;;;;;7.45;2.50;;;11.50;99.90;;;;;;5079803;28;20032;-44
2023/11/15 01:16:45;;;;;;;4.78;2.03;;;11.50;99.90;;;;;;5081360;28;20613;-44
2023/11/15 01:19:11;;;;;;;5.28;2.55;;;11.50;99.90;;;;;;5080356;28;20035;-44
2023/11/15 01:21:36;;;;;;;4.38;1.83;;;11.40;99.90;;;;;;5080121;28;20031;-44
2023/11/15 01:24:03;;;;;;;5.22;1.83;;;11.40;99.90;;;;;;5080988;28;20121;-45
2023/11/15 01:26:28;;;;;;;8.40;1.65;;;11.20;99.90;;;;;;5080329;28;20085;-44
2023/11/15 01:28:57;;;;;;;5.85;1.40;;;11.20;99.90;;;;;;5068715;28;20024;-44
2023/11/15 01:31:23;;;;;;;3.78;1.33;;;11.10;99.90;;;;;;5080319;28;20101;-44
2023/11/15 01:33:49;;;;;;;3.65;1.15;;;11.00;99.90;;;;;;5080286;28;20131;-43
2023/11/15 01:36:14;;;;;;;3.35;1.00;;;11.00;99.90;;;;;;5079210;28;20063;-44
2023/11/15 01:38:41;;;;;;;2.63;1.10;;;10.90;99.90;;;;;;5080293;28;20122;-44
2023/11/15 01:41:07;;;;;;;3.47;1.30;;;10.90;99.90;;;;;;5080593;28;20111;-44
2023/11/15 01:43:33;;;;;;;1.70;1.02;;;10.90;99.90;;;;;;5079707;28;20035;-43
2023/11/15 01:46:00;;;;;;;4.80;1.10;;;10.90;99.90;;;;;;5080445;28;20039;-44
2023/11/15 01:48:27;;;;;;;1.65;0.90;;;10.80;99.90;;;;;;5079576;28;20055;-44
2023/11/15 01:50:53;;;;;;;0.93;0.60;;;10.80;99.90;;;;;;5083350;28;20463;-43
2023/11/15 01:53:20;;;;;;;2.67;0.70;;;10.80;99.90;;;;;;5084430;28;20016;-45
2023/11/15 01:55:47;;;;;;;2.75;0.65;;;10.80;99.90;;;;;;5084294;28;20476;-43
2023/11/15 01:58:14;;;;;;;2.88;0.75;;;10.70;99.90;;;;;;5082465;28;20115;-43
2023/11/15 02:00:40;;;;;;;1.10;0.60;;;10.70;99.90;;;;;;5083751;28;20538;-44
2023/11/15 02:03:05;;;;;;;2.65;0.60;;;10.70;99.90;;;;;;5083536;28;20130;-43
2023/11/15 02:05:31;;;;;;;1.25;0.60;;;10.70;99.90;;;;;;5082893;28;20090;-44
2023/11/15 02:07:57;;;;;;;0.95;0.70;;;10.70;99.90;;;;;;5084107;28;20046;-43
2023/11/15 02:10:23;;;;;;;2.20;1.45;;;10.70;99.90;;;;;;5082950;28;20095;-43
2023/11/15 02:12:51;;;;;;;1.13;0.73;;;10.70;99.90;;;;;;5083839;28;20012;-44
2023/11/15 02:15:21;;;;;;;0.95;0.63;;;10.60;99.90;;;;;;5083474;28;20020;-43
2023/11/15 02:17:48;;;;;;;1.20;0.70;;;10.60;99.90;;;;;;5083255;28;20077;-35
2023/11/15 02:20:17;;;;;;;0.80;0.50;;;10.60;99.90;;;;;;5083363;28;20070;-37
2023/11/15 02:22:48;;;;;;;0.75;0.60;;;10.60;99.90;;;;;;5083926;28;20078;-36
2023/11/15 02:25:15;;;;;;;1.55;0.50;;;10.60;99.90;;;;;;5081007;28;20039;-36
2023/11/15 02:27:41;;;;;;;0.70;0.50;;;10.60;99.90;;;;;;5083997;28;20022;-36
2023/11/15 02:30:08;;;;;;;0.90;0.73;;;10.60;99.90;;;;;;5083014;28;20028;-35
2023/11/15 02:32:39;;;;;;;1.50;0.75;;;10.70;99.90;;;;;;5082766;28;20660;-37
2023/11/15 02:35:07;;;;;;;1.63;0.85;;;10.70;99.90;;;;;;5083528;28;20028;-36
2023/11/15 02:37:34;;;;;;;1.15;0.77;;;10.70;99.90;;;;;;5082517;28;20815;-36
2023/11/15 02:40:04;;;;;;;1.42;1.00;;;10.70;99.90;;;;;;5082021;28;20028;-36
2023/11/15 02:42:32;;;;;;;3.03;1.00;;;10.70;99.90;;;;;;5082990;28;20505;-36
2023/11/15 02:45:04;;;;;;;4.18;0.90;;;10.70;99.90;;;;;;5082545;28;20471;-37
2023/11/15 02:47:29;;;;;;;2.50;1.00;;;10.70;99.90;;;;;;5082457;28;20035;-36
2023/11/15 02:49:55;;;;;;;2.00;0.95;;;10.70;99.90;;;;;;5082145;28;20031;-36
2023/11/15 02:52:21;;;;;;;1.40;0.93;;;10.70;99.90;;;;;;5082529;28;20034;-36
2023/11/15 02:54:50;;;;;;;3.65;1.10;;;10.70;99.90;;;;;;5082154;28;20167;-35
2023/11/15 02:57:15;;;;;;;2.67;1.00;;;10.80;99.90;;;;;;5082655;28;20391;-36
2023/11/15 02:59:44;;;;;;;0.95;0.80;;;10.80;99.90;;;;;;5081655;28;20516;-36
2023/11/15 03:02:10;;;;;;;1.58;0.90;;;10.80;99.90;;;;;;5082677;28;20024;-36
2023/11/15 03:04:35;;;;;;;5.10;1.15;;;10.80;99.90;;;;;;5082515;28;20032;-36
2023/11/15 03:07:01;;;;;;;2.70;1.40;;;10.90;99.90;;;;;;5081384;28;20259;-36
2023/11/15 03:09:26;;;;;;;6.80;2.05;;;10.90;99.90;;;;;;5082354;28;20024;-36
2023/11/15 03:11:52;;;;;;;6.97;2.40;;;10.90;99.90;;;;;;5082600;28;20119;-35
2023/11/15 03:14:18;;;;;;;3.10;1.63;;;10.90;99.90;;;;;;5081652;28;20487;-36
2023/11/15 03:16:44;;;;;;;4.25;1.65;;;10.90;99.90;;;;;;5082803;28;20693;-35
2023/11/15 03:19:10;;;;;;;4.95;1.95;;;10.90;99.90;;;;;;5082458;28;20038;-35
2023/11/15 03:21:38;;;;;;;8.25;2.25;;;11.00;99.90;;;;;;5080963;28;20024;-36
2023/11/15 03:24:04;;;;;;;5.10;1.80;;;11.00;99.90;;;;;;5080790;28;20052;-36
2023/11/15 03:26:30;;;;;;;4.22;1.70;;;11.00;99.90;;;;;;5081757;28;20040;-34
2023/11/15 03:28:56;;;;;;;5.57;1.88;;;11.10;99.90;;;;;;5081058;28;20562;-34
2023/11/15 03:31:21;;;;;;;8.45;2.33;;;11.10;99.90;;;;;;5081374;28;20028;-35
2023/11/15 03:33:47;;;;;;;6.28;2.20;;;11.20;99.90;;;;;;5082236;28;20085;-35
2023/11/15 03:36:13;;;;;;;8.35;2.55;;;11.10;99.90;;;;;;5080592;28;20434;-35
2023/11/15 03:38:40;;;;;;;11.63;2.78;;;11.10;99.90;;;;;;5081690;28;20110;-36
2023/11/15 03:41:06;;;;;;;5.47;1.73;;;11.10;99.90;;;;;;5082194;28;20065;-36
2023/11/15 03:43:32;;;;;;;7.90;2.25;;;11.20;99.90;;;;;;5082025;28;20028;-35
2023/11/15 03:45:58;;;;;;;7.05;2.28;;;11.20;99.90;;;;;;5081396;28;20221;-35
2023/11/15 03:48:24;;;;;;;5.25;1.63;;;11.20;99.90;;;;;;5081365;28;20166;-36
2023/11/15 03:50:53;;;;;;;8.23;2.00;;;11.20;99.90;;;;;;5080479;28;20024;-36
2023/11/15 03:53:18;;;;;;;7.13;2.30;;;11.20;99.90;;;;;;5069755;28;20422;-36
2023/11/15 03:55:44;;;;;;;5.35;1.95;;;11.20;99.90;;;;;;5069607;28;20093;-36
2023/11/15 03:58:10;;;;;;;9.18;2.72;;;11.20;99.90;;;;;;5073531;28;20032;-35
2023/11/15 04:00:35;;;;;;;8.85;2.50;;;11.20;99.90;;;;;;5061241;28;20128;-37
2023/11/15 04:03:02;;;;;;;5.30;2.00;;;11.20;99.90;;;;;;5072475;28;20032;-39
2023/11/15 04:05:28;;;;;;;5.10;2.13;;;11.20;99.90;;;;;;5041687;28;20173;-35
2023/11/15 04:07:53;;;;;;;8.82;2.10;;;11.20;99.90;;;;;;5065966;28;20103;-35
2023/11/15 04:10:19;;;;;;;7.25;1.88;;;11.20;99.90;;;;;;5063242;28;20392;-35
2023/11/15 04:12:46;;;;;;;5.00;1.80;;;11.20;99.90;;;;;;5067716;28;20016;-35
2023/11/15 04:15:12;;;;;;;6.63;2.00;;;11.20;99.90;;;;;;5065304;28;20042;-36
2023/11/15 04:17:38;;;;;;;8.48;2.50;;;11.20;99.90;;;;;;5066096;28;20024;-35
2023/11/15 04:20:07;;;;;;;7.20;2.60;;;11.20;99.90;;;;;;5068932;28;20021;-35
2023/11/15 04:22:33;;;;;;;8.45;2.38;;;11.20;99.90;;;;;;5063701;28;20028;-36
2023/11/15 04:25:02;;;;;;;7.68;2.17;;;11.20;99.90;;;;;;5069863;28;20392;-37
2023/11/15 04:27:30;;;;;;;4.13;1.60;;;11.20;99.90;;;;;;5062236;28;20013;-38
2023/11/15 04:29:58;;;;;;;8.82;2.15;;;11.20;99.90;;;;;;5071659;28;20027;-37
2023/11/15 04:32:30;;;;;;;6.07;1.73;;;11.20;99.90;;;;;;5061227;28;20039;-37
2023/11/15 04:34:56;;;;;;;7.25;1.88;;;11.20;99.90;;;;;;5072460;28;20033;-36
2023/11/15 04:37:24;;;;;;;4.00;1.85;;;11.20;99.90;;;;;;5058100;28;20563;-36
2023/11/15 04:39:49;;;;;;;7.88;1.70;;;11.20;99.90;;;;;;5071577;28;20063;-35
2023/11/15 04:42:17;;;;;;;5.72;1.95;;;11.30;99.90;;;;;;5060486;28;20119;-35
2023/11/15 04:44:45;;;;;;;5.55;1.70;;;11.30;99.90;;;;;;5073027;28;20027;-37
2023/11/15 04:47:14;;;;;;;4.88;1.85;;;11.30;99.90;;;;;;5059700;28;20786;-36
2023/11/15 04:49:40;;;;;;;5.68;1.50;;;11.30;99.90;;;;;;5077201;28;20047;-36
2023/11/15 04:52:07;;;;;;;8.48;1.90;;;11.30;99.90;;;;;;5080195;28;20112;-36
2023/11/15 04:54:35;;;;;;;4.38;1.33;;;11.30;99.90;;;;;;5081054;28;20024;-36
2023/11/15 04:57:03;;;;;;;7.13;1.70;;;11.20;99.90;;;;;;5080948;28;20112;-37
2023/11/15 04:59:29;;;;;;;10.32;2.45;;;11.30;99.90;;;;;;5079994;28;20031;-36
2023/11/15 05:01:54;;;;;;;4.95;1.63;;;11.20;99.90;;;;;;5080776;28;20040;-37
2023/11/15 05:04:21;;;;;;;7.18;1.92;;;11.30;99.90;;;;;;5080058;28;20062;-36
2023/11/15 05:06:48;;;;;;;6.28;1.48;;;11.30;99.90;;;;;;5080457;28;20040;-36
2023/11/15 05:09:14;;;;;;;5.85;1.58;;;11.30;99.90;;;;;;5080204;28;20685;-37
2023/11/15 05:11:39;;;;;;;7.32;1.67;;;11.30;99.90;;;;;;5079555;28;20582;-37
2023/11/15 05:14:07;;;;;;;6.25;1.50;;;11.30;99.90;;;;;;5080117;28;20665;-37
2023/11/15 05:16:33;;;;;;;6.28;1.50;;;11.30;99.90;;;;;;5068985;28;20504;-37
2023/11/15 05:18:59;;;;;;;6.93;1.65;;;11.30;99.90;;;;;;5080557;28;20024;-37
2023/11/15 05:21:27;;;;;;;5.80;1.63;;;11.30;99.90;;;;;;5079764;28;20032;-36
2023/11/15 05:23:52;;;;;;;7.43;1.88;;;11.40;99.90;;;;;;5083075;28;20544;-37
2023/11/15 05:26:18;;;;;;;7.10;2.17;;;11.40;99.90;;;;;;5084184;28;20039;-37
2023/11/15 05:28:43;;;;;;;10.20;2.30;;;11.30;99.90;;;;;;5083952;28;20804;-38
2023/11/15 05:31:09;;;;;;;5.97;1.60;;;11.30;99.90;;;;;;5083388;28;20032;-37
2023/11/15 05:33:37;;;;;;;9.70;2.10;;;11.30;99.90;;;;;;5084298;28;20070;-37
2023/11/15 05:36:03;;;;;;;4.18;1.45;;;11.40;99.90;;;;;;5083598;28;20397;-37
2023/11/15 05:38:29;;;;;;;5.38;1.58;;;11.30;99.90;;;;;;5083807;28;20070;-37
2023/11/15 05:40:55;;;;;;;7.57;1.77;;;11.40;99.90;;;;;;5083453;28;20040;-37
2023/11/15 05:43:20;;;;;;;4.80;1.50;;;11.40;99.90;;;;;;5082988;28;20031;-37
2023/11/15 05:45:46;;;;;;;9.40;2.00;;;11.40;99.90;;;;;;5084214;28;20317;-37
2023/11/15 05:48:12;;;;;;;6.63;1.65;;;11.40;99.90;;;;;;5083989;28;20051;-37
2023/11/15 05:50:37;;;;;;;9.60;1.70;;;11.40;99.90;;;;;;5080140;28;20032;-37
2023/11/15 05:53:03;;;;;;;7.38;1.80;;;11.40;99.90;;;;;;5076021;28;20016;-37
2023/11/15 05:55:28;;;;;;;9.43;1.67;;;11.40;99.90;;;;;;5082241;28;20028;-36
2023/11/15 05:57:54;;;;;;;7.03;1.83;;;11.40;99.90;;;;;;5072361;28;20112;-37
2023/11/15 06:00:20;;;;;;;6.40;1.77;;;11.40;99.90;;;;;;5082886;28;20036;-37
2023/11/15 06:02:47;;;;;;;5.35;1.80;;;11.40;99.90;;;;;;5072119;28;20060;-37
2023/11/15 06:05:22;;;;;;;5.57;1.65;;;11.40;99.90;;;;;;5082376;28;20395;-35
2023/11/15 06:07:47;;;;;;;5.85;1.75;;;11.40;99.90;;;;;;5072144;28;20016;-35
2023/11/15 06:10:14;;;;;;;4.63;1.70;;;11.40;99.90;;;;;;5082228;28;20446;-35
2023/11/15 06:12:40;;;;;;;6.80;1.73;;;11.40;99.90;;;;;;5070296;28;20047;-36
2023/11/15 06:15:10;;;;;;;7.82;1.88;;;11.40;99.90;;;;;;5083375;28;20115;-35
2023/11/15 06:17:36;;;;;;;4.63;1.60;;;11.40;99.90;;;;;;5070227;28;20028;-35
2023/11/15 06:20:03;;;;;;;10.18;2.40;;;11.40;99.90;;;;;;5082765;28;20073;-36
2023/11/15 06:22:28;;;;;;;8.63;2.22;;;11.40;99.90;;;;;;5071855;28;20610;-37
2023/11/15 06:24:54;;;;;;;10.50;2.15;;;11.40;99.90;;;;;;5080800;28;20040;-37
2023/11/15 06:27:20;;;;;;;6.93;2.38;;;11.40;99.90;;;;;;5074643;28;20024;-38
2023/11/15 06:29:50;;;;;;;9.15;2.33;;;11.40;99.90;;;;;;5078821;28;20020;-37
2023/11/15 06:32:15;;;;;;;6.13;2.03;;;11.40;99.90;;;;;;5076567;28;20028;-36
2023/11/15 06:34:44;;;;;;;7.85;2.10;;;11.40;99.90;;;;;;5072762;28;20029;-35
2023/11/15 06:37:13;;;;;;;6.25;2.00;;;11.50;99.90;;;;;;5066079;28;20641;-35
2023/11/15 06:39:42;;;;;;;4.47;1.60;;;11.50;99.90;;;;;;5070777;28;20866;-36
2023/11/15 06:42:10;;;;;;;5.22;1.77;;;11.50;99.90;;;;;;5062129;28;20035;-35
2023/11/15 06:44:39;;;;;;;7.40;2.00;;;11.50;99.90;;;;;;5071457;28;20052;-35
2023/11/15 06:47:08;;;;;;;6.88;2.25;;;11.50;99.90;;;;;;5063248;28;20024;-36
2023/11/15 06:49:37;;;;;;;11.73;2.92;;;11.40;99.90;;;;;;5073729;28;20081;-36
2023/11/15 06:52:05;;;;;;;9.15;2.30;;;11.40;99.90;;;;;;5062970;28;20063;-36
2023/11/15 06:54:31;;;;;;;5.35;1.70;;;11.40;99.90;;;;;;5073257;28;20024;-36
2023/11/15 06:56:57;;;;;;;6.03;1.80;;;11.40;99.90;;;;;;5062447;28;20039;-35
2023/11/15 06:59:23;;;;;;;8.80;1.92;;;11.40;99.90;;;;;;5073404;28;20626;-35
2023/11/15 07:01:49;;;;;;;7.00;1.90;;;11.40;99.90;;;;;;5062070;28;20024;-35
2023/11/15 07:04:16;;;;;;;8.00;2.20;;;11.40;99.90;;;;;;5074563;28;20033;-36
2023/11/15 07:06:46;;;;;;;6.07;1.80;;;11.40;99.90;;;;;;5061867;28;20039;-37
2023/11/15 07:09:12;;;;;;;4.40;1.70;;;11.40;99.90;;;;;;5063237;28;21001;-36
2023/11/15 07:11:48;;;;;;;6.38;2.10;;;11.40;99.90;;;;;;5083266;28;20028;-37
2023/11/15 07:14:15;;;;;;;9.60;2.20;;;11.40;99.90;;;;;;5078430;28;20035;-36
2023/11/15 07:16:47;;;;;;;8.50;2.33;;;11.40;99.90;;;;;;5064293;28;20036;-36
2023/11/15 07:19:13;;;;;;;;;;;11.40;99.90;;;;;;5070279;28;20226;-35
2023/11/15 07:21:42;;;;;;;8.05;1.90;;;11.40;99.90;;;;;;5064256;28;20397;-37
2023/11/15 07:24:12;;;;;;;7.50;2.10;;;11.40;99.90;;;;;;5068074;28;20020;-36
2023/11/15 07:26:41;;;;;;;10.15;1.88;;;11.40;99.90;;;;;;5066883;28;20037;-37
2023/11/15 07:29:07;;;;;;;10.15;3.10;;;11.30;99.90;;;;;;5066435;28;20016;-36
2023/11/15 07:31:34;;;;;;;12.43;2.75;;;11.30;99.90;;;;;;5067880;28;20062;-36
2023/11/15 07:34:00;;;;;;;7.90;1.75;;;11.30;99.90;;;;;;5064808;28;20017;-37
2023/11/15 07:36:29;;;;;;;7.40;1.88;;;11.30;99.90;;;;;;5083577;28;20770;-37
2023/11/15 07:38:55;;;;;;;6.78;1.50;;;11.30;99.90;;;;;;5081952;28;20043;-36
2023/11/15 07:41:21;;;;;;;5.47;1.40;;;11.10;99.90;;;;;;5074023;28;20039;-35
2023/11/15 07:43:46;;;;;;;6.72;1.42;;;11.10;99.90;;;;;;5064173;28;20021;-37
2023/11/15 07:46:13;;;;;;;6.47;1.83;;;11.00;99.90;;;;;;5073181;28;20048;-35
2023/11/15 07:48:40;;;;;;;5.35;1.40;;;11.00;99.90;;;;;;5068187;28;20121;-35
2023/11/15 07:51:10;;;;;;;4.88;1.60;;;11.00;99.90;;;;;;5082077;28;20150;-36
2023/11/15 07:53:35;;;;;;;3.20;1.65;;;11.00;99.90;;;;;;5082084;28;20028;-35
2023/11/15 07:56:02;;;;;;;5.50;1.58;;;11.00;99.90;;;;;;5081251;28;20032;-35
2023/11/15 07:58:28;;;;;;;5.25;1.52;;;11.00;99.90;;;;;;5081674;28;20816;-35
2023/11/15 08:00:54;;;;;;;5.95;2.00;;;11.00;99.90;;;;;;5081179;28;20028;-37
2023/11/15 08:03:19;;;;;;;4.90;1.25;;;11.00;99.90;;;;;;5080325;28;20137;-36
2023/11/15 08:05:47;;;;;;;6.20;1.92;;;11.10;99.90;;;;;;5081290;28;20562;-37
2023/11/15 08:08:14;;;;;;;3.60;1.60;;;11.10;99.90;;;;;;5080752;28;20024;-37
2023/11/15 08:10:46;;;;;;;7.15;1.70;;;11.20;99.90;;;;;;5080877;28;20063;-37
2023/11/15 08:13:17;;;;;;;;;;;11.20;99.90;;;;;;5081463;28;20032;-36
2023/11/15 08:15:42;;;;;;;7.97;1.92;;;11.30;99.90;;;;;;5080538;28;20479;-37
2023/11/15 08:18:08;;;;;;;9.63;2.30;;;11.20;99.90;;;;;;5080675;28;20024;-36
2023/11/15 08:20:35;;;;;;;9.02;2.25;;;11.30;99.90;;;;;;5080492;28;20027;-36
2023/11/15 08:23:02;;;;;;;10.13;2.45;;;11.30;99.90;;;;;;5080835;28;20016;-36
2023/11/15 08:25:27;;;;;;;8.10;2.10;;;11.20;99.90;;;;;;5081096;28;20063;-36
2023/11/15 08:27:53;;;;;;;9.52;2.45;;;11.20;99.90;;;;;;5080811;28;20497;-37
2023/11/15 08:30:19;;;;;;;8.15;2.28;;;11.20;99.90;;;;;;5079492;28;20038;-36
2023/11/15 08:32:48;;;;;;;7.13;2.13;;;11.20;99.90;;;;;;5080409;28;20020;-35
2023/11/15 08:35:17;;;;;;;11.73;2.53;;;11.20;99.90;;;;;;5080841;28;20060;-36
2023/11/15 08:37:43;;;;;;;6.20;2.20;;;11.30;99.90;;;;;;5079541;28;20032;-36
2023/11/15 08:40:11;;;;;;;7.82;2.10;;;11.30;99.90;;;;;;5081179;28;20024;-36
2023/11/15 08:42:40;;;;;;;9.77;2.17;;;11.30;99.90;;;;;;5080463;28;20024;-36
2023/11/15 08:45:07;;;;;;;8.70;2.78;;;11.30;99.90;;;;;;5079502;28;20475;-36
2023/11/15 08:47:36;;;;;;;10.07;2.40;;;11.30;99.90;;;;;;5080762;28;20032;-37
2023/11/15 08:50:03;;;;;;;6.57;2.05;;;11.40;99.90;;;;;;5060150;28;20048;-37
2023/11/15 08:52:29;;;;;;;8.25;2.30;;;11.40;99.90;;;;;;5074251;28;20686;-37
2023/11/15 08:54:56;;;;;;;4.85;1.73;;;11.40;99.90;;;;;;5080593;28;20035;-36
2023/11/15 08:57:21;;;;;;;9.65;2.28;;;11.40;99.90;;;;;;5079618;28;20028;-36
2023/11/15 08:59:47;;;;;;;7.93;2.40;;;11.40;99.90;;;;;;5079802;28;20024;-36
2023/11/15 09:02:16;;;;;;;9.90;2.55;;;11.40;99.90;;;;;;5079996;28;20124;-35
2023/11/15 09:04:42;;;;;;;8.52;2.25;;;11.50;99.90;;;;;;5080253;28;20184;-34
2023/11/15 09:07:08;;;;;;;8.63;2.13;;;11.50;99.90;;;;;;5079366;28;20048;-36
2023/11/15 09:09:41;;;;;;;9.45;2.30;;;11.50;99.90;;;;;;5080670;28;20028;-36
2023/11/15 09:12:08;;;;;;;8.35;2.20;;;11.60;99.90;;;;;;5076676;28;20020;-37
2023/11/15 09:14:35;;;;;;;6.30;1.90;;;11.60;99.90;;;;;;5078433;28;20027;-36
2023/11/15 09:17:05;;;;;;;5.90;2.13;;;11.70;99.90;;;;;;5080362;28;20031;-37
2023/11/15 09:19:33;;;;;;;8.00;2.50;;;11.70;99.90;;;;;;5079635;28;20092;-37
2023/11/15 09:22:04;;;;;;;6.05;2.25;;;11.70;99.90;;;;;;5079965;28;20820;-37
2023/11/15 09:24:33;;;;;;;7.50;2.10;;;11.80;99.90;;;;;;5079963;28;20457;-36
2023/11/15 09:27:00;;;;;;;7.00;1.92;;;11.80;99.90;;;;;;5080233;28;20562;-36
2023/11/15 09:29:28;;;;;;;8.05;2.55;;;11.80;99.90;;;;;;5079439;28;20029;-36
2023/11/15 09:31:54;;;;;;;7.93;2.33;;;11.80;99.90;;;;;;5078585;28;20557;-37
2023/11/15 09:34:20;;;;;;;7.10;2.08;;;11.80;99.90;;;;;;5079768;28;20028;-36
2023/11/15 09:36:47;;;;;;;13.25;3.38;;;11.80;99.90;;;;;;5080283;28;20387;-37
2023/11/15 09:39:16;;;;;;;7.68;2.00;;;11.80;99.90;;;;;;5079682;28;20538;-36
2023/11/15 09:41:48;;;;;;;6.13;1.60;;;11.90;99.90;;;;;;5079822;28;20027;-36
2023/11/15 09:44:18;;;;;;;7.40;2.35;;;11.90;99.90;;;;;;5078914;28;20130;-36
2023/11/15 09:46:45;;;;;;;10.57;2.58;;;11.90;99.90;;;;;;5079782;28;20051;-36
2023/11/15 09:49:13;;;;;;;8.70;2.00;;;11.90;99.90;;;;;;5079050;28;20072;-36
2023/11/15 09:51:40;;;;;;;6.75;2.05;;;11.90;99.90;;;;;;5080328;28;20027;-37
2023/11/15 09:54:06;;;;;;;6.45;2.83;;;12.00;99.90;;;;;;5079737;28;20055;-35
2023/11/15 09:56:34;;;;;;;10.63;2.53;;;11.90;99.90;;;;;;5078685;28;20625;-36
2023/11/15 09:58:59;;;;;;;8.30;2.53;;;11.90;99.90;;;;;;5079925;28;20460;-36
2023/11/15 10:01:26;;;;;;;6.65;2.17;;;11.90;99.90;;;;;;5079345;28;20024;-37
2023/11/15 10:03:52;;;;;;;7.10;2.28;;;11.90;99.90;;;;;;5078871;28;20568;-37
2023/11/15 10:06:24;;;;;;;9.40;2.30;;;11.90;99.90;;;;;;5079318;28;20036;-36
2023/11/15 10:08:52;;;;;;;4.32;2.05;;;11.90;99.90;;;;;;5079349;28;20025;-36
2023/11/15 10:11:18;;;;;;;6.18;1.90;;;12.00;99.90;;;;;;5082482;28;20024;-36
2023/11/15 10:13:44;;;;;;;7.07;2.05;;;12.00;99.90;;;;;;5083991;28;20035;-36
2023/11/15 10:16:30;;;;;;;8.23;2.00;;;12.10;99.90;;;;;;5083194;28;20619;-36
2023/11/15 10:18:57;;;;;;;7.63;2.15;;;12.20;99.90;;;;;;5084524;28;20028;-37
2023/11/15 10:21:24;;;;;;;10.15;2.60;;;12.20;99.90;;;;;;5083176;28;20028;-37
2023/11/15 10:24:09;;;;;;;5.75;2.05;;;12.30;99.90;;;;;;5083005;28;20036;-37
2023/11/15 10:26:38;;;;;;;5.97;1.67;;;12.30;99.90;;;;;;5080366;28;20035;-37
2023/11/15 10:29:12;;;;;;;4.85;1.70;;;12.40;99.90;;;;;;5083364;28;20514;-37
2023/11/15 10:31:49;;;;;;;9.27;1.88;;;12.40;99.90;;;;;;5082427;28;20078;-36
2023/11/15 10:34:16;;;;;;;4.95;1.42;;;12.40;99.90;;;;;;5082542;28;20036;-35
2023/11/15 10:36:42;;;;;;;8.95;2.05;;;12.50;99.90;;;;;;5083523;28;20119;-36
2023/11/15 10:39:11;;;;;;;7.68;2.33;;;12.50;99.90;;;;;;5083192;28;20031;-35
2023/11/15 10:41:39;;;;;;;7.30;1.63;;;12.50;99.90;;;;;;5082168;28;20476;-35
2023/11/15 10:44:07;;;;;;;6.63;1.73;;;12.60;99.90;;;;;;5082639;28;20088;-37
2023/11/15 10:46:39;;;;;;;4.78;1.45;;;12.60;99.90;;;;;;5080557;28;20668;-37
2023/11/15 10:49:06;;;;;;;5.77;1.70;;;12.70;99.90;;;;;;5081218;28;20044;-35
2023/11/15 10:51:44;;;;;;;5.13;1.67;;;12.70;99.90;;;;;;5080040;28;20194;-36
2023/11/15 10:54:13;;;;;;;5.30;1.50;;;12.70;99.90;;;;;;5062113;28;20020;-36
2023/11/15 10:56:42;;;;;;;6.35;1.75;;;12.70;99.90;;;;;;5076498;28;20032;-36
2023/11/15 10:59:10;;;;;;;8.18;1.98;;;12.70;99.90;;;;;;5081373;28;20024;-36
2023/11/15 11:01:37;;;;;;;7.72;1.83;;;12.70;99.90;;;;;;5082577;28;20135;-38
2023/11/15 11:04:05;;;;;;;3.15;1.42;;;12.70;99.90;;;;;;5082405;28;20466;-36
2023/11/15 11:06:51;;;;;;;5.78;2.10;;;12.70;99.90;;;;;;5082021;28;20463;-36
2023/11/15 11:09:47;;;;;;;5.00;1.55;;;12.70;99.90;;;;;;5082474;28;20016;-36
2023/11/15 11:12:16;;;;;;;9.75;1.83;;;12.70;99.90;;;;;;5081290;28;20035;-36
2023/11/15 11:14:46;;;;;;;8.13;2.10;;;12.70;99.90;;;;;;5082363;28;20212;-36
2023/11/15 11:17:32;;;;;;;8.80;2.03;;;12.70;99.90;;;;;;5081587;28;20783;-36
2023/11/15 11:20:00;;;;;;;7.63;1.90;;;12.80;99.90;;;;;;5081560;28;20085;-36
2023/11/15 11:22:26;;;;;;;8.55;1.80;;;12.80;99.90;;;;;;5081387;28;20020;-35
2023/11/15 11:25:07;;;;;;;5.97;1.60;;;12.70;99.90;;;;;;5082807;28;20036;-36
2023/11/15 11:27:42;;;;;;;8.98;2.00;;;12.80;99.90;;;;;;5081269;28;20063;-36
2023/11/15 11:30:11;;;;;;;6.40;1.60;;;12.90;99.90;;;;;;5082586;28;20157;-36
2023/11/15 11:32:41;;;;;;;10.18;1.90;;;12.90;99.90;;;;;;5082613;28;20062;-36
2023/11/15 11:35:07;;;;;;;6.15;1.83;;;13.00;99.90;;;;;;5081547;28;20024;-37
2023/11/15 11:37:46;;;;;;;9.95;1.70;;;13.00;99.90;;;;;;5081801;28;20043;-37
2023/11/15 11:40:13;;;;;;;9.52;1.92;;;13.10;99.90;;;;;;5080959;28;20028;-36
2023/11/15 11:42:40;;;;;;;7.05;1.95;;;13.10;99.90;;;;;;5082201;28;20087;-37
2023/11/15 11:45:07;;;;;;;7.53;2.15;;;13.10;99.90;;;;;;5081987;28;20039;-37
2023/11/15 11:47:46;;;;;;;7.80;2.70;;;13.20;99.90;;;;;;5080509;28;20118;-37
2023/11/15 11:50:24;;;;;;;7.30;1.70;;;13.20;99.90;;;;;;5068128;28;20045;-36
2023/11/15 11:52:57;;;;;;;5.68;1.70;;;13.20;99.90;;;;;;5066290;28;20023;-36
2023/11/15 11:55:24;;;;;;;7.82;1.98;;;13.20;99.90;;;;;;5067570;28;20067;-43
2023/11/15 11:57:50;;;;;;;7.53;1.75;;;13.30;99.90;;;;;;5065136;28;20032;-37
2023/11/15 12:00:16;;;;;;;7.80;1.50;;;13.20;99.90;;;;;;5069971;28;20040;-36
2023/11/15 12:02:45;;;;;;;11.88;2.05;;;13.20;99.90;;;;;;5061923;28;20028;-36
2023/11/15 12:05:15;;;;;;;7.53;1.80;;;13.10;99.90;;;;;;5072242;28;20043;-37
2023/11/15 12:08:00;;;;;;;8.35;1.83;;;13.00;99.90;;;;;;5062968;28;20067;-38
2023/11/15 12:10:29;;;;;;;5.82;1.50;;;13.00;99.90;;;;;;5058789;28;20024;-39
2023/11/15 12:12:54;;;;;;;7.15;1.80;;;12.80;99.90;;;;;;5079696;28;20058;-38
2023/11/15 12:15:22;;;;;;;5.65;1.60;;;12.80;99.90;;;;;;5069485;28;20139;-37
2023/11/15 12:17:50;;;;;;;5.90;1.60;;;12.70;99.90;;;;;;5080591;28;20514;-37
2023/11/15 12:20:28;;;;;;;6.85;1.60;;;12.60;99.90;;;;;;5069579;28;20031;-37
2023/11/15 12:23:04;;;;;;;3.85;1.40;;;12.40;99.90;;;;;;5079124;28;20079;-37
2023/11/15 12:25:47;;;;;;;4.55;1.55;;;12.30;99.90;;;;;;5069261;28;20822;-37
2023/11/15 12:28:19;;;;;;;6.75;1.73;;;12.30;99.90;;;;;;5062420;28;20104;-37
2023/11/15 12:30:45;;;;;;;6.63;2.03;;;12.20;99.90;;;;;;5071776;28;20059;-38
2023/11/15 12:33:14;;;;;;;6.85;1.52;;;12.10;99.90;;;;;;5060860;28;20090;-38
2023/11/15 12:35:40;;;;;;;6.40;1.40;;;12.10;99.90;;;;;;5067856;28;20055;-37
2023/11/15 12:38:09;;;;;;;8.05;1.48;;;12.10;99.90;;;;;;5080980;28;20062;-37
2023/11/15 12:40:37;;;;;;;6.43;2.13;;;12.10;99.90;;;;;;5067807;28;20032;-37
2023/11/15 12:43:35;;;;;;;8.23;1.50;;;12.20;99.90;;;;;;5081583;28;20031;-38
2023/11/15 12:46:14;;;;;;;6.85;1.40;;;12.20;99.90;;;;;;4997469;28;20055;-37
2023/11/15 12:48:41;;;;;;;3.35;1.33;;;12.20;99.90;;;;;;5080594;28;20032;-37